الصفحة الرئيسية
METAR-TAF:

METAR-TAF

مطار :

قزوين, إيران

دائرة عرض: 36-15N, خط طول: 050-00E, ارتفاع: 1278 متر

مراقبة الطقس الحالي

تاريخ ووقت الإصدار 1ساعة و 13 دقيقة قبل الساعة 03:00UTC
ريح 2 عقدة من الغرب/الشمال الغربي
درجة الحرارة 21°درجة مئوية
الرطوبة 56%
ضغط 1018 hPa
الرؤية 10 كم أو أكثر
غيوم مفككة على ارتفاع 4000 قدم

METAR: OIIK 190300Z 30002KT 9999 BKN040 21/12 Q1018

زمن: 08:43 (04:13 UTC)


TAF: مفقودة

أرصاد الطقس والتوقعات من أكثر من 4000 مطار (تقارير الطقس للمطار METAR والتنبؤ بالطقس بالمطارTAF).

المحطات المتاحة هي النقط الصفراء والحمراء على الخريطة.

حرك المؤشر فوق النقطة لمعرفة اسم المحطة.

ثم انقر لمعرفة أرصاد وتوقعات الطقس.

لتغيير الخارطة: اضغط على الأزرار الخضراء مع رمز الصليب الأسود للتكبير. على الزر الأخضر مع شرطة للتصغير، أو على الأسهم الخضراء للخرائط المجاورة.


METAR-TAF: